sensor_id;sensor_type;location;lat;lon;timestamp;pressure;altitude;pressure_sealevel;temperature;humidity
64404;BME280;50726;54.912;-8.392;2022-12-07T00:01:08;102277.09;;;30.66;30.17
64404;BME280;50726;54.912;-8.392;2022-12-07T00:03:35;102273.63;;;30.32;30.79
64404;BME280;50726;54.912;-8.392;2022-12-07T00:06:03;102275.38;;;30.10;31.15
64404;BME280;50726;54.912;-8.392;2022-12-07T00:08:30;102266.34;;;28.80;32.97
64404;BME280;50726;54.912;-8.392;2022-12-07T00:11:01;102278.19;;;30.08;31.20
64404;BME280;50726;54.912;-8.392;2022-12-07T00:13:27;102268.75;;;30.14;30.78
64404;BME280;50726;54.912;-8.392;2022-12-07T00:15:53;102262.25;;;29.24;31.33
64404;BME280;50726;54.912;-8.392;2022-12-07T00:18:18;102269.47;;;28.87;32.28
64404;BME280;50726;54.912;-8.392;2022-12-07T00:20:44;102277.28;;;30.42;30.84
64404;BME280;50726;54.912;-8.392;2022-12-07T00:23:10;102272.00;;;30.96;30.19
64404;BME280;50726;54.912;-8.392;2022-12-07T00:25:35;102263.59;;;29.88;31.42
64404;BME280;50726;54.912;-8.392;2022-12-07T00:28:01;102265.16;;;30.25;30.78
64404;BME280;50726;54.912;-8.392;2022-12-07T00:30:26;102259.91;;;30.35;30.56
64404;BME280;50726;54.912;-8.392;2022-12-07T00:32:52;102254.56;;;29.42;31.84
64404;BME280;50726;54.912;-8.392;2022-12-07T00:35:18;102265.59;;;29.03;32.49
64404;BME280;50726;54.912;-8.392;2022-12-07T00:37:43;102255.72;;;29.73;31.30
64404;BME280;50726;54.912;-8.392;2022-12-07T00:40:09;102263.56;;;31.11;30.66
64404;BME280;50726;54.912;-8.392;2022-12-07T00:42:35;102259.16;;;29.64;32.23
64404;BME280;50726;54.912;-8.392;2022-12-07T00:45:01;102256.84;;;32.61;30.40
64404;BME280;50726;54.912;-8.392;2022-12-07T00:47:26;102247.00;;;32.79;29.97
64404;BME280;50726;54.912;-8.392;2022-12-07T00:49:52;102237.44;;;32.46;29.55
64404;BME280;50726;54.912;-8.392;2022-12-07T00:52:18;102226.31;;;32.88;28.69
64404;BME280;50726;54.912;-8.392;2022-12-07T00:54:44;102236.34;;;32.68;28.70
64404;BME280;50726;54.912;-8.392;2022-12-07T00:57:10;102240.78;;;32.08;29.68
64404;BME280;50726;54.912;-8.392;2022-12-07T00:59:35;102240.97;;;31.54;29.68
64404;BME280;50726;54.912;-8.392;2022-12-07T01:02:01;102243.28;;;30.95;30.14
64404;BME280;50726;54.912;-8.392;2022-12-07T01:04:27;102232.69;;;30.15;30.68
64404;BME280;50726;54.912;-8.392;2022-12-07T01:06:52;102232.94;;;29.55;31.01
64404;BME280;50726;54.912;-8.392;2022-12-07T01:09:18;102233.53;;;29.00;31.25
64404;BME280;50726;54.912;-8.392;2022-12-07T01:11:44;102236.63;;;29.77;30.81
64404;BME280;50726;54.912;-8.392;2022-12-07T01:14:09;102239.06;;;28.36;31.81
64404;BME280;50726;54.912;-8.392;2022-12-07T01:16:35;102235.19;;;27.77;32.81
64404;BME280;50726;54.912;-8.392;2022-12-07T01:19:02;102237.56;;;28.32;33.38
64404;BME280;50726;54.912;-8.392;2022-12-07T01:21:32;102248.06;;;29.44;32.69
64404;BME280;50726;54.912;-8.392;2022-12-07T01:24:04;102245.56;;;29.18;32.03
64404;BME280;50726;54.912;-8.392;2022-12-07T01:26:31;102251.94;;;30.77;31.55
64404;BME280;50726;54.912;-8.392;2022-12-07T01:28:56;102248.75;;;29.94;30.84
64404;BME280;50726;54.912;-8.392;2022-12-07T01:31:25;102250.09;;;30.99;31.22
64404;BME280;50726;54.912;-8.392;2022-12-07T01:33:56;102253.44;;;31.24;30.46
64404;BME280;50726;54.912;-8.392;2022-12-07T01:36:24;102253.22;;;30.50;31.21
64404;BME280;50726;54.912;-8.392;2022-12-07T01:38:57;102245.94;;;30.62;30.19
64404;BME280;50726;54.912;-8.392;2022-12-07T01:41:27;102230.69;;;30.28;31.39
64404;BME280;50726;54.912;-8.392;2022-12-07T01:44:18;102228.16;;;31.56;30.25
64404;BME280;50726;54.912;-8.392;2022-12-07T01:46:57;102224.50;;;31.36;29.86
64404;BME280;50726;54.912;-8.392;2022-12-07T01:52:30;102216.91;;;31.08;30.04
64404;BME280;50726;54.912;-8.392;2022-12-07T01:55:02;102215.56;;;30.81;30.50
64404;BME280;50726;54.912;-8.392;2022-12-07T01:57:31;102210.31;;;29.21;31.94
64404;BME280;50726;54.912;-8.392;2022-12-07T01:59:59;102208.63;;;29.43;31.52
64404;BME280;50726;54.912;-8.392;2022-12-07T02:02:34;102207.78;;;28.71;32.64
64404;BME280;50726;54.912;-8.392;2022-12-07T02:05:02;102215.28;;;29.03;32.45
64404;BME280;50726;54.912;-8.392;2022-12-07T02:07:29;102213.09;;;29.79;31.35
64404;BME280;50726;54.912;-8.392;2022-12-07T02:09:56;102209.78;;;29.64;31.27
64404;BME280;50726;54.912;-8.392;2022-12-07T02:12:23;102206.09;;;26.91;33.93
64404;BME280;50726;54.912;-8.392;2022-12-07T02:14:50;102202.03;;;27.90;33.91
64404;BME280;50726;54.912;-8.392;2022-12-07T02:17:32;102207.09;;;28.80;33.38
64404;BME280;50726;54.912;-8.392;2022-12-07T02:20:33;102212.16;;;28.36;33.66
64404;BME280;50726;54.912;-8.392;2022-12-07T02:28:34;102199.09;;;29.85;31.76
64404;BME280;50726;54.912;-8.392;2022-12-07T02:31:18;102194.44;;;27.57;34.69
64404;BME280;50726;54.912;-8.392;2022-12-07T02:33:54;102186.16;;;27.60;33.64
64404;BME280;50726;54.912;-8.392;2022-12-07T02:36:25;102205.19;;;28.21;34.44
64404;BME280;50726;54.912;-8.392;2022-12-07T02:39:14;102200.53;;;28.60;32.88
64404;BME280;50726;54.912;-8.392;2022-12-07T02:41:53;102201.84;;;28.30;33.00
64404;BME280;50726;54.912;-8.392;2022-12-07T02:44:24;102194.84;;;27.25;34.20
64404;BME280;50726;54.912;-8.392;2022-12-07T02:47:06;102184.97;;;27.39;33.48
64404;BME280;50726;54.912;-8.392;2022-12-07T02:49:33;102173.69;;;27.72;33.36
64404;BME280;50726;54.912;-8.392;2022-12-07T02:52:01;102177.31;;;27.84;33.78
64404;BME280;50726;54.912;-8.392;2022-12-07T02:54:26;102177.44;;;27.44;34.62
64404;BME280;50726;54.912;-8.392;2022-12-07T02:57:00;102186.06;;;28.50;33.46
64404;BME280;50726;54.912;-8.392;2022-12-07T03:00:17;102180.66;;;27.49;32.81
64404;BME280;50726;54.912;-8.392;2022-12-07T03:02:50;102176.72;;;26.75;33.90
64404;BME280;50726;54.912;-8.392;2022-12-07T03:05:26;102172.34;;;25.61;34.31
64404;BME280;50726;54.912;-8.392;2022-12-07T03:10:35;102186.16;;;24.47;36.55
64404;BME280;50726;54.912;-8.392;2022-12-07T03:15:46;102182.19;;;25.90;35.15
64404;BME280;50726;54.912;-8.392;2022-12-07T03:18:16;102175.53;;;26.39;34.73
64404;BME280;50726;54.912;-8.392;2022-12-07T03:20:44;102164.03;;;25.06;35.22
64404;BME280;50726;54.912;-8.392;2022-12-07T03:23:12;102170.81;;;25.71;34.29
64404;BME280;50726;54.912;-8.392;2022-12-07T03:25:44;102165.84;;;25.05;36.26
64404;BME280;50726;54.912;-8.392;2022-12-07T03:28:14;102170.69;;;25.44;36.28
64404;BME280;50726;54.912;-8.392;2022-12-07T03:30:46;102170.94;;;25.10;36.75
64404;BME280;50726;54.912;-8.392;2022-12-07T03:33:22;102165.47;;;25.86;34.48
64404;BME280;50726;54.912;-8.392;2022-12-07T03:36:00;102167.78;;;26.75;35.13
64404;BME280;50726;54.912;-8.392;2022-12-07T03:38:33;102158.97;;;27.39;35.67
64404;BME280;50726;54.912;-8.392;2022-12-07T03:41:08;102160.66;;;27.01;35.05
64404;BME280;50726;54.912;-8.392;2022-12-07T03:43:36;102178.91;;;26.13;35.04
64404;BME280;50726;54.912;-8.392;2022-12-07T03:49:05;102175.16;;;25.43;36.45
64404;BME280;50726;54.912;-8.392;2022-12-07T03:56:53;102163.78;;;26.95;34.56
64404;BME280;50726;54.912;-8.392;2022-12-07T03:59:20;102165.53;;;27.22;34.10
64404;BME280;50726;54.912;-8.392;2022-12-07T04:01:53;102159.28;;;26.27;35.25
64404;BME280;50726;54.912;-8.392;2022-12-07T04:04:20;102149.81;;;27.29;33.91
64404;BME280;50726;54.912;-8.392;2022-12-07T04:06:46;102147.69;;;27.21;33.85
64404;BME280;50726;54.912;-8.392;2022-12-07T04:09:12;102144.34;;;27.30;33.49
64404;BME280;50726;54.912;-8.392;2022-12-07T04:11:40;102141.34;;;26.68;34.46
64404;BME280;50726;54.912;-8.392;2022-12-07T04:14:05;102135.66;;;27.27;33.88
64404;BME280;50726;54.912;-8.392;2022-12-07T04:16:44;102135.38;;;28.19;33.35
64404;BME280;50726;54.912;-8.392;2022-12-07T04:19:11;102135.56;;;27.92;33.41
64404;BME280;50726;54.912;-8.392;2022-12-07T04:21:37;102120.72;;;27.99;33.24
64404;BME280;50726;54.912;-8.392;2022-12-07T04:24:03;102121.63;;;27.86;33.75
64404;BME280;50726;54.912;-8.392;2022-12-07T04:26:29;102116.69;;;26.76;34.04
64404;BME280;50726;54.912;-8.392;2022-12-07T04:28:55;102114.31;;;26.04;34.97
64404;BME280;50726;54.912;-8.392;2022-12-07T04:31:20;102117.44;;;26.78;34.61
64404;BME280;50726;54.912;-8.392;2022-12-07T04:33:46;102118.97;;;25.58;35.15
64404;BME280;50726;54.912;-8.392;2022-12-07T04:36:12;102125.63;;;24.76;36.09
64404;BME280;50726;54.912;-8.392;2022-12-07T04:38:37;102124.31;;;24.84;36.83
64404;BME280;50726;54.912;-8.392;2022-12-07T04:41:07;102135.38;;;21.85;42.39
64404;BME280;50726;54.912;-8.392;2022-12-07T04:43:33;102133.19;;;21.74;43.88
64404;BME280;50726;54.912;-8.392;2022-12-07T04:45:59;102134.75;;;22.36;42.30
64404;BME280;50726;54.912;-8.392;2022-12-07T04:48:25;102126.56;;;22.21;42.48
64404;BME280;50726;54.912;-8.392;2022-12-07T04:50:51;102119.13;;;25.11;38.61
64404;BME280;50726;54.912;-8.392;2022-12-07T04:53:16;102116.50;;;26.39;36.65
64404;BME280;50726;54.912;-8.392;2022-12-07T04:55:43;102112.16;;;26.23;36.46
64404;BME280;50726;54.912;-8.392;2022-12-07T04:58:09;102110.22;;;25.40;37.52
64404;BME280;50726;54.912;-8.392;2022-12-07T05:00:35;102116.75;;;26.21;36.65
64404;BME280;50726;54.912;-8.392;2022-12-07T05:03:00;102120.56;;;25.31;37.60
64404;BME280;50726;54.912;-8.392;2022-12-07T05:05:26;102124.88;;;24.58;38.58
64404;BME280;50726;54.912;-8.392;2022-12-07T05:07:52;102124.47;;;24.80;37.72
64404;BME280;50726;54.912;-8.392;2022-12-07T05:10:17;102124.44;;;24.19;40.13
64404;BME280;50726;54.912;-8.392;2022-12-07T05:12:43;102123.41;;;24.22;40.09
64404;BME280;50726;54.912;-8.392;2022-12-07T05:15:09;102131.84;;;25.80;38.54
64404;BME280;50726;54.912;-8.392;2022-12-07T05:17:35;102111.91;;;27.33;36.69
64404;BME280;50726;54.912;-8.392;2022-12-07T05:20:00;102118.06;;;27.86;35.63
64404;BME280;50726;54.912;-8.392;2022-12-07T05:22:26;102109.31;;;26.39;36.00
64404;BME280;50726;54.912;-8.392;2022-12-07T05:24:54;102109.38;;;26.78;36.58
64404;BME280;50726;54.912;-8.392;2022-12-07T05:27:20;102098.38;;;27.22;35.67
64404;BME280;50726;54.912;-8.392;2022-12-07T05:29:46;102097.16;;;26.87;35.93
64404;BME280;50726;54.912;-8.392;2022-12-07T05:32:12;102107.56;;;26.11;37.32
64404;BME280;50726;54.912;-8.392;2022-12-07T05:34:37;102105.81;;;27.05;35.92
64404;BME280;50726;54.912;-8.392;2022-12-07T05:37:03;102112.91;;;25.25;38.07
64404;BME280;50726;54.912;-8.392;2022-12-07T05:39:29;102125.19;;;23.89;39.48
64404;BME280;50726;54.912;-8.392;2022-12-07T05:41:55;102118.13;;;25.99;37.38
64404;BME280;50726;54.912;-8.392;2022-12-07T05:44:40;102096.63;;;24.38;39.95
64404;BME280;50726;54.912;-8.392;2022-12-07T05:47:06;102104.63;;;25.59;38.38
64404;BME280;50726;54.912;-8.392;2022-12-07T05:49:32;102089.00;;;24.77;39.26
64404;BME280;50726;54.912;-8.392;2022-12-07T05:51:58;102089.34;;;26.84;37.12
64404;BME280;50726;54.912;-8.392;2022-12-07T05:54:24;102085.19;;;28.31;35.35
64404;BME280;50726;54.912;-8.392;2022-12-07T05:56:50;102089.34;;;27.36;35.54
64404;BME280;50726;54.912;-8.392;2022-12-07T05:59:16;102088.13;;;28.28;35.05
64404;BME280;50726;54.912;-8.392;2022-12-07T06:01:54;102080.25;;;28.97;34.21
64404;BME280;50726;54.912;-8.392;2022-12-07T06:04:21;102084.59;;;28.14;35.28
64404;BME280;50726;54.912;-8.392;2022-12-07T06:06:47;102080.97;;;29.44;33.94
64404;BME280;50726;54.912;-8.392;2022-12-07T06:09:13;102082.50;;;29.48;33.45
64404;BME280;50726;54.912;-8.392;2022-12-07T06:11:40;102079.06;;;29.24;33.83
64404;BME280;50726;54.912;-8.392;2022-12-07T06:14:24;102081.00;;;29.21;33.57
64404;BME280;50726;54.912;-8.392;2022-12-07T06:16:50;102061.75;;;30.05;32.41
64404;BME280;50726;54.912;-8.392;2022-12-07T06:19:16;102066.00;;;30.19;32.32
64404;BME280;50726;54.912;-8.392;2022-12-07T06:21:42;102070.34;;;29.54;32.22
64404;BME280;50726;54.912;-8.392;2022-12-07T06:24:10;102062.13;;;29.33;32.64
64404;BME280;50726;54.912;-8.392;2022-12-07T06:26:36;102072.19;;;28.00;33.81
64404;BME280;50726;54.912;-8.392;2022-12-07T06:29:02;102067.34;;;28.77;33.19
64404;BME280;50726;54.912;-8.392;2022-12-07T06:31:28;102070.97;;;29.24;33.55
64404;BME280;50726;54.912;-8.392;2022-12-07T06:34:02;102069.97;;;29.13;33.74
64404;BME280;50726;54.912;-8.392;2022-12-07T06:36:28;102067.31;;;28.66;33.56
64404;BME280;50726;54.912;-8.392;2022-12-07T06:38:54;102072.91;;;29.10;33.93
64404;BME280;50726;54.912;-8.392;2022-12-07T06:41:21;102068.25;;;27.69;34.22
64404;BME280;50726;54.912;-8.392;2022-12-07T06:43:47;102066.25;;;26.81;35.81
64404;BME280;50726;54.912;-8.392;2022-12-07T06:46:13;102049.50;;;27.04;35.77
64404;BME280;50726;54.912;-8.392;2022-12-07T06:48:40;102057.34;;;29.37;34.22
64404;BME280;50726;54.912;-8.392;2022-12-07T06:51:06;102057.06;;;30.18;33.20
64404;BME280;50726;54.912;-8.392;2022-12-07T06:53:32;102058.47;;;28.88;32.80
64404;BME280;50726;54.912;-8.392;2022-12-07T06:55:58;102065.81;;;27.40;33.83
64404;BME280;50726;54.912;-8.392;2022-12-07T06:58:23;102061.47;;;27.50;34.26
64404;BME280;50726;54.912;-8.392;2022-12-07T07:00:49;102077.16;;;28.43;33.67
64404;BME280;50726;54.912;-8.392;2022-12-07T07:03:16;102071.38;;;28.72;33.87
64404;BME280;50726;54.912;-8.392;2022-12-07T07:05:42;102069.22;;;28.41;34.30
64404;BME280;50726;54.912;-8.392;2022-12-07T07:08:09;102078.16;;;28.41;33.26
64404;BME280;50726;54.912;-8.392;2022-12-07T07:10:35;102071.63;;;27.33;34.38
64404;BME280;50726;54.912;-8.392;2022-12-07T07:13:01;102068.41;;;27.15;34.87
64404;BME280;50726;54.912;-8.392;2022-12-07T07:15:27;102064.00;;;28.62;34.01
64404;BME280;50726;54.912;-8.392;2022-12-07T07:17:53;102081.25;;;28.24;33.88
64404;BME280;50726;54.912;-8.392;2022-12-07T07:20:18;102074.28;;;29.50;33.25
64404;BME280;50726;54.912;-8.392;2022-12-07T07:22:44;102064.88;;;28.03;32.43
64404;BME280;50726;54.912;-8.392;2022-12-07T07:25:10;102066.16;;;28.93;33.52
64404;BME280;50726;54.912;-8.392;2022-12-07T07:27:35;102069.53;;;28.25;32.78
64404;BME280;50726;54.912;-8.392;2022-12-07T07:30:01;102059.19;;;28.43;33.85
64404;BME280;50726;54.912;-8.392;2022-12-07T07:32:28;102055.28;;;29.17;33.79
64404;BME280;50726;54.912;-8.392;2022-12-07T07:34:53;102069.84;;;29.38;32.48
64404;BME280;50726;54.912;-8.392;2022-12-07T07:37:19;102058.81;;;29.06;32.27
64404;BME280;50726;54.912;-8.392;2022-12-07T07:39:45;102056.06;;;28.61;33.12
64404;BME280;50726;54.912;-8.392;2022-12-07T07:42:10;102063.06;;;30.43;30.87
64404;BME280;50726;54.912;-8.392;2022-12-07T07:44:36;102055.13;;;31.15;30.21
64404;BME280;50726;54.912;-8.392;2022-12-07T07:47:02;102056.47;;;30.14;30.01
64404;BME280;50726;54.912;-8.392;2022-12-07T07:49:28;102054.91;;;30.00;30.33
64404;BME280;50726;54.912;-8.392;2022-12-07T07:51:54;102056.09;;;28.12;32.86
64404;BME280;50726;54.912;-8.392;2022-12-07T07:54:19;102060.66;;;27.37;32.63
64404;BME280;50726;54.912;-8.392;2022-12-07T07:56:45;102052.94;;;27.06;33.24
64404;BME280;50726;54.912;-8.392;2022-12-07T07:59:11;102049.78;;;27.88;32.56
64404;BME280;50726;54.912;-8.392;2022-12-07T08:01:36;102057.03;;;27.12;33.07
64404;BME280;50726;54.912;-8.392;2022-12-07T08:04:02;102046.00;;;28.87;32.19
64404;BME280;50726;54.912;-8.392;2022-12-07T08:06:27;102052.59;;;29.40;31.33
64404;BME280;50726;54.912;-8.392;2022-12-07T08:08:53;102032.25;;;29.25;31.13
64404;BME280;50726;54.912;-8.392;2022-12-07T08:11:19;102036.88;;;29.45;31.63
64404;BME280;50726;54.912;-8.392;2022-12-07T08:13:46;102053.75;;;28.79;32.04
64404;BME280;50726;54.912;-8.392;2022-12-07T08:16:15;102052.97;;;27.94;32.98
64404;BME280;50726;54.912;-8.392;2022-12-07T08:18:41;102055.63;;;29.24;32.15
64404;BME280;50726;54.912;-8.392;2022-12-07T08:21:11;102054.44;;;29.51;32.89
64404;BME280;50726;54.912;-8.392;2022-12-07T08:23:37;102055.13;;;29.65;32.83
64404;BME280;50726;54.912;-8.392;2022-12-07T08:26:04;102042.63;;;28.25;33.06
64404;BME280;50726;54.912;-8.392;2022-12-07T08:28:30;102062.63;;;28.45;32.56
64404;BME280;50726;54.912;-8.392;2022-12-07T08:31:04;102051.44;;;30.10;32.51
64404;BME280;50726;54.912;-8.392;2022-12-07T08:33:30;102059.66;;;29.76;31.60
64404;BME280;50726;54.912;-8.392;2022-12-07T08:36:07;102056.16;;;29.96;30.80
64404;BME280;50726;54.912;-8.392;2022-12-07T08:38:38;102053.59;;;29.05;31.75
64404;BME280;50726;54.912;-8.392;2022-12-07T08:41:04;102049.41;;;29.35;31.54
64404;BME280;50726;54.912;-8.392;2022-12-07T08:43:31;102054.69;;;29.92;31.04
64404;BME280;50726;54.912;-8.392;2022-12-07T08:46:05;102057.44;;;29.69;31.54
64404;BME280;50726;54.912;-8.392;2022-12-07T08:48:32;102056.44;;;29.82;31.21
64404;BME280;50726;54.912;-8.392;2022-12-07T08:50:58;102060.06;;;28.55;33.50
64404;BME280;50726;54.912;-8.392;2022-12-07T08:53:24;102051.78;;;28.22;33.65
64404;BME280;50726;54.912;-8.392;2022-12-07T08:55:50;102047.06;;;29.30;32.91
64404;BME280;50726;54.912;-8.392;2022-12-07T08:58:15;102049.59;;;29.78;31.07
64404;BME280;50726;54.912;-8.392;2022-12-07T09:00:41;102059.75;;;27.62;32.95
64404;BME280;50726;54.912;-8.392;2022-12-07T09:03:07;102055.59;;;28.31;33.75
64404;BME280;50726;54.912;-8.392;2022-12-07T09:05:33;102049.78;;;27.88;34.13
64404;BME280;50726;54.912;-8.392;2022-12-07T09:08:01;102052.56;;;29.52;32.86
64404;BME280;50726;54.912;-8.392;2022-12-07T09:10:28;102057.13;;;29.95;32.71
64404;BME280;50726;54.912;-8.392;2022-12-07T09:12:54;102051.16;;;29.92;32.52
64404;BME280;50726;54.912;-8.392;2022-12-07T09:15:20;102052.66;;;28.81;33.63
64404;BME280;50726;54.912;-8.392;2022-12-07T09:17:46;102047.38;;;28.80;33.53
64404;BME280;50726;54.912;-8.392;2022-12-07T09:20:12;102042.56;;;27.52;33.75
64404;BME280;50726;54.912;-8.392;2022-12-07T09:22:38;102036.41;;;27.12;34.81
64404;BME280;50726;54.912;-8.392;2022-12-07T09:25:04;102036.66;;;29.03;33.71
64404;BME280;50726;54.912;-8.392;2022-12-07T09:27:30;102033.03;;;28.45;32.71
64404;BME280;50726;54.912;-8.392;2022-12-07T09:29:56;102038.31;;;26.58;34.42
64404;BME280;50726;54.912;-8.392;2022-12-07T09:32:22;102030.31;;;27.60;34.86
64404;BME280;50726;54.912;-8.392;2022-12-07T09:34:48;102047.09;;;28.49;33.48
64404;BME280;50726;54.912;-8.392;2022-12-07T09:37:14;102031.81;;;28.49;33.47
64404;BME280;50726;54.912;-8.392;2022-12-07T09:39:40;102045.31;;;28.25;33.26
64404;BME280;50726;54.912;-8.392;2022-12-07T09:42:07;102038.56;;;26.94;34.96
64404;BME280;50726;54.912;-8.392;2022-12-07T09:44:34;102047.16;;;28.36;33.09
64404;BME280;50726;54.912;-8.392;2022-12-07T09:47:00;102039.91;;;30.19;31.82
64404;BME280;50726;54.912;-8.392;2022-12-07T09:49:32;102030.56;;;29.01;32.56
64404;BME280;50726;54.912;-8.392;2022-12-07T09:54:35;102038.25;;;29.40;32.71
64404;BME280;50726;54.912;-8.392;2022-12-07T09:57:02;102039.63;;;29.23;32.94
64404;BME280;50726;54.912;-8.392;2022-12-07T09:59:29;102037.56;;;28.56;33.26
64404;BME280;50726;54.912;-8.392;2022-12-07T10:01:55;102021.75;;;28.40;33.13
64404;BME280;50726;54.912;-8.392;2022-12-07T10:04:24;102023.13;;;28.57;34.53
64404;BME280;50726;54.912;-8.392;2022-12-07T10:06:51;102023.84;;;28.12;33.84
64404;BME280;50726;54.912;-8.392;2022-12-07T10:09:20;102002.59;;;30.24;31.83
64404;BME280;50726;54.912;-8.392;2022-12-07T10:12:07;102012.03;;;29.86;32.53
64404;BME280;50726;54.912;-8.392;2022-12-07T10:14:37;102008.50;;;30.18;32.69
64404;BME280;50726;54.912;-8.392;2022-12-07T10:17:31;102009.72;;;29.37;32.72
64404;BME280;50726;54.912;-8.392;2022-12-07T10:20:18;102004.81;;;29.42;32.82
64404;BME280;50726;54.912;-8.392;2022-12-07T10:23:02;101997.53;;;28.87;33.51
64404;BME280;50726;54.912;-8.392;2022-12-07T10:25:33;102006.66;;;28.26;34.71
64404;BME280;50726;54.912;-8.392;2022-12-07T10:28:18;102005.22;;;27.36;35.13
64404;BME280;50726;54.912;-8.392;2022-12-07T10:36:16;101989.81;;;26.74;36.38
64404;BME280;50726;54.912;-8.392;2022-12-07T10:38:48;101992.03;;;27.57;36.08
64404;BME280;50726;54.912;-8.392;2022-12-07T10:41:15;101988.09;;;26.99;35.94
64404;BME280;50726;54.912;-8.392;2022-12-07T10:43:52;101981.94;;;28.79;35.03
64404;BME280;50726;54.912;-8.392;2022-12-07T10:49:30;101985.97;;;29.19;35.04
64404;BME280;50726;54.912;-8.392;2022-12-07T10:52:45;101986.78;;;30.93;33.43
64404;BME280;50726;54.912;-8.392;2022-12-07T10:55:58;101991.97;;;30.33;33.90
64404;BME280;50726;54.912;-8.392;2022-12-07T11:03:58;101986.38;;;29.03;35.38
64404;BME280;50726;54.912;-8.392;2022-12-07T11:06:37;101975.69;;;29.25;34.13
64404;BME280;50726;54.912;-8.392;2022-12-07T11:09:36;101977.69;;;29.99;33.50
64404;BME280;50726;54.912;-8.392;2022-12-07T11:12:16;101961.53;;;30.21;33.16
64404;BME280;50726;54.912;-8.392;2022-12-07T11:17:47;101967.09;;;30.81;32.62
64404;BME280;50726;54.912;-8.392;2022-12-07T11:26:54;101959.53;;;29.69;33.64
64404;BME280;50726;54.912;-8.392;2022-12-07T11:29:44;101958.19;;;31.71;32.19
64404;BME280;50726;54.912;-8.392;2022-12-07T11:33:04;101949.00;;;31.03;31.99
64404;BME280;50726;54.912;-8.392;2022-12-07T11:35:34;101948.28;;;28.85;34.67
64404;BME280;50726;54.912;-8.392;2022-12-07T11:38:11;101941.06;;;31.21;31.84
64404;BME280;50726;54.912;-8.392;2022-12-07T11:40:40;101948.97;;;29.33;33.68
64404;BME280;50726;54.912;-8.392;2022-12-07T11:45:45;101939.78;;;30.44;33.42
64404;BME280;50726;54.912;-8.392;2022-12-07T11:50:58;101934.00;;;31.60;32.88
64404;BME280;50726;54.912;-8.392;2022-12-07T11:53:26;101933.66;;;31.04;32.73
64404;BME280;50726;54.912;-8.392;2022-12-07T12:03:52;101921.34;;;30.80;32.38
64404;BME280;50726;54.912;-8.392;2022-12-07T12:06:20;101919.88;;;29.04;33.96
64404;BME280;50726;54.912;-8.392;2022-12-07T12:09:23;101922.47;;;30.77;33.47
64404;BME280;50726;54.912;-8.392;2022-12-07T12:14:59;101908.25;;;31.46;32.28
64404;BME280;50726;54.912;-8.392;2022-12-07T12:23:17;101892.75;;;33.01;31.15
64404;BME280;50726;54.912;-8.392;2022-12-07T12:25:54;101880.38;;;32.23;31.50
64404;BME280;50726;54.912;-8.392;2022-12-07T12:33:59;101872.25;;;30.65;33.21
64404;BME280;50726;54.912;-8.392;2022-12-07T12:47:41;101872.47;;;29.57;33.36
64404;BME280;50726;54.912;-8.392;2022-12-07T12:50:18;101864.06;;;30.45;32.68
64404;BME280;50726;54.912;-8.392;2022-12-07T12:52:51;101864.13;;;31.85;31.84
64404;BME280;50726;54.912;-8.392;2022-12-07T12:55:20;101865.28;;;32.30;31.52
64404;BME280;50726;54.912;-8.392;2022-12-07T13:00:48;101854.44;;;31.23;32.91
64404;BME280;50726;54.912;-8.392;2022-12-07T13:03:33;101847.63;;;32.26;31.36
64404;BME280;50726;54.912;-8.392;2022-12-07T13:06:29;101838.75;;;32.90;31.31
64404;BME280;50726;54.912;-8.392;2022-12-07T13:08:59;101846.25;;;29.59;34.81
64404;BME280;50726;54.912;-8.392;2022-12-07T13:16:58;101835.56;;;32.10;31.87
64404;BME280;50726;54.912;-8.392;2022-12-07T13:22:49;101828.66;;;32.82;31.65
64404;BME280;50726;54.912;-8.392;2022-12-07T13:27:48;101817.88;;;33.55;31.02
64404;BME280;50726;54.912;-8.392;2022-12-07T13:30:20;101827.69;;;32.83;30.83
64404;BME280;50726;54.912;-8.392;2022-12-07T13:32:57;101825.44;;;33.15;30.65
64404;BME280;50726;54.912;-8.392;2022-12-07T13:35:33;101827.03;;;31.18;32.73
64404;BME280;50726;54.912;-8.392;2022-12-07T13:38:02;101814.59;;;32.22;31.39
64404;BME280;50726;54.912;-8.392;2022-12-07T13:40:29;101813.06;;;31.23;32.12
64404;BME280;50726;54.912;-8.392;2022-12-07T13:43:03;101809.94;;;30.06;34.52
64404;BME280;50726;54.912;-8.392;2022-12-07T13:45:32;101815.16;;;29.55;34.20
64404;BME280;50726;54.912;-8.392;2022-12-07T13:48:48;101813.50;;;32.05;32.59
64404;BME280;50726;54.912;-8.392;2022-12-07T13:51:25;101808.44;;;33.49;30.81
64404;BME280;50726;54.912;-8.392;2022-12-07T13:54:00;101787.25;;;33.44;30.33
64404;BME280;50726;54.912;-8.392;2022-12-07T13:56:32;101792.53;;;33.99;30.36
64404;BME280;50726;54.912;-8.392;2022-12-07T13:58:59;101797.72;;;32.66;31.01
64404;BME280;50726;54.912;-8.392;2022-12-07T14:01:26;101802.22;;;32.20;31.84
64404;BME280;50726;54.912;-8.392;2022-12-07T14:03:53;101786.47;;;33.34;30.79
64404;BME280;50726;54.912;-8.392;2022-12-07T14:06:23;101784.31;;;31.71;31.81
64404;BME280;50726;54.912;-8.392;2022-12-07T14:09:21;101783.13;;;33.40;31.25
64404;BME280;50726;54.912;-8.392;2022-12-07T14:11:48;101777.69;;;32.59;31.70
64404;BME280;50726;54.912;-8.392;2022-12-07T14:14:20;101784.34;;;32.83;31.46
64404;BME280;50726;54.912;-8.392;2022-12-07T14:16:57;101770.78;;;33.64;31.23
64404;BME280;50726;54.912;-8.392;2022-12-07T14:19:48;101772.47;;;34.26;30.43
64404;BME280;50726;54.912;-8.392;2022-12-07T14:22:41;101773.00;;;33.42;30.99
64404;BME280;50726;54.912;-8.392;2022-12-07T14:27:38;101753.84;;;29.14;34.48
64404;BME280;50726;54.912;-8.392;2022-12-07T14:30:05;101747.78;;;28.57;35.40
64404;BME280;50726;54.912;-8.392;2022-12-07T14:32:32;101755.09;;;29.10;35.04
64404;BME280;50726;54.912;-8.392;2022-12-07T14:35:18;101741.09;;;28.05;36.20
64404;BME280;50726;54.912;-8.392;2022-12-07T14:37:47;101735.03;;;27.44;37.84
64404;BME280;50726;54.912;-8.392;2022-12-07T14:40:15;101742.34;;;27.54;37.46